Armuchee, Georgia
Current Conditions -  °F | °C
As of 9:11 PM on Monday 22 Dec 2014 (Local Time) from KRMG Reporting Station
Moderate Rain Moderate Rain  
Wind Chill:   Ceiling: 900
Heat Index:   Visibility: 4mi
Dew Point:   Wind: 8mph
Humidity: 93%   Direction: 130°SE
Pressure: 29.88"   Gusts: NA
Location:  34.39°N, 85.18°W
Report Text: KRMG 230211Z AUTO 13007KT 4SM RA BR OVC009 07/06 A2988 RMK AO2 RAB05 CIG 007V012 P0002 T00720061
Loading
Personal Weather Stations






























Interactive Weather Map New forecast layout! Learn more

10-Day Weather Forecast

Advertisements
Track Severe Weather on mobile